Time;durP1;ratioP1;P1;durP2;ratioP2;P2;SDS_P1;SDS_P2;PMS_P1;PMS_P2;Temp;Humidity;BMP_temperature;BMP_pressure;BME280_temperature;BME280_humidity;BME280_pressure;Samples;Min_cycle;Max_cycle;Signal;HPM_P1;HPM_P2
2022/10/06 00:01:27;;;;;;;8.37;2.10;;;;;;;;;;6244674;22;20243;-84
2022/10/06 00:03:54;;;;;;;5.60;2.10;;;;;;;;;;6271370;22;20177;-85
2022/10/06 00:06:21;;;;;;;6.30;2.17;;;;;;;;;;6244806;22;20177;-84
2022/10/06 00:08:49;;;;;;;6.17;2.07;;;;;;;;;;6244220;22;20180;-85
2022/10/06 00:11:16;;;;;;;6.27;2.17;;;;;;;;;;6270728;22;20195;-85
2022/10/06 00:13:45;;;;;;;8.40;2.20;;;;;;;;;;6243255;22;20180;-83
2022/10/06 00:16:13;;;;;;;6.83;2.40;;;;;;;;;;6270063;22;20193;-84
2022/10/06 00:18:41;;;;;;;6.87;2.10;;;;;;;;;;6243741;22;20208;-80
2022/10/06 00:21:08;;;;;;;3.43;1.37;;;;;;;;;;6272089;22;20177;-83
2022/10/06 00:23:36;;;;;;;8.50;1.33;;;;;;;;;;6269821;22;20170;-83
2022/10/06 00:26:03;;;;;;;2.13;1.20;;;;;;;;;;6270098;22;20169;-85
2022/10/06 00:28:31;;;;;;;5.63;1.17;;;;;;;;;;6270668;22;20198;-83
2022/10/06 00:31:01;;;;;;;3.03;0.77;;;;;;;;;;6243700;22;20644;-85
2022/10/06 00:33:29;;;;;;;5.73;1.20;;;;;;;;;;6270490;22;20162;-83
2022/10/06 00:35:59;;;;;;;6.23;0.93;;;;;;;;;;6269703;22;20204;-84
2022/10/06 00:38:26;;;;;;;4.70;0.93;;;;;;;;;;6270693;22;20717;-84
2022/10/06 00:40:54;;;;;;;2.40;0.90;;;;;;;;;;6269650;22;20196;-84
2022/10/06 00:43:42;;;;;;;7.73;0.77;;;;;;;;;;6269144;22;20181;-83
2022/10/06 00:46:12;;;;;;;3.13;0.80;;;;;;;;;;6265229;22;20710;-83
2022/10/06 00:48:40;;;;;;;8.10;0.80;;;;;;;;;;6270447;22;20770;-83
2022/10/06 00:51:07;;;;;;;4.60;0.70;;;;;;;;;;6270346;22;20177;-86
2022/10/06 00:53:36;;;;;;;2.23;0.77;;;;;;;;;;6270435;22;20178;-85
2022/10/06 00:56:03;;;;;;;4.33;0.83;;;;;;;;;;6269405;22;20248;-83
2022/10/06 00:58:31;;;;;;;5.63;0.87;;;;;;;;;;6270281;22;20190;-83
2022/10/06 01:01:01;;;;;;;6.17;1.03;;;;;;;;;;6269755;22;20227;-84
2022/10/06 01:03:32;;;;;;;3.67;0.80;;;;;;;;;;6269696;22;20220;-84
2022/10/06 01:06:01;;;;;;;5.37;0.70;;;;;;;;;;6218792;22;20651;-86
2022/10/06 01:08:28;;;;;;;3.93;0.90;;;;;;;;;;6267424;22;20743;-83
2022/10/06 01:10:55;;;;;;;2.90;0.80;;;;;;;;;;6267995;22;20495;-83
2022/10/06 01:13:23;;;;;;;7.93;1.20;;;;;;;;;;6268828;22;20180;-83
2022/10/06 01:15:53;;;;;;;4.10;0.77;;;;;;;;;;6243109;22;20212;-85
2022/10/06 01:18:21;;;;;;;5.17;1.03;;;;;;;;;;6269001;22;20193;-83
2022/10/06 01:20:51;;;;;;;2.43;0.77;;;;;;;;;;6245050;22;20174;-84
2022/10/06 01:23:21;;;;;;;4.13;0.90;;;;;;;;;;6269051;22;20181;-84
2022/10/06 01:25:48;;;;;;;4.07;1.07;;;;;;;;;;6271134;22;20170;-83
2022/10/06 01:28:15;;;;;;;2.97;0.93;;;;;;;;;;6270389;22;20190;-83
2022/10/06 01:30:49;;;;;;;3.50;1.00;;;;;;;;;;6270961;22;20256;-83
2022/10/06 01:33:17;;;;;;;3.13;1.10;;;;;;;;;;6269345;22;20165;-84
2022/10/06 01:35:46;;;;;;;4.03;0.80;;;;;;;;;;6270338;22;20201;-83
2022/10/06 01:38:13;;;;;;;5.03;0.97;;;;;;;;;;6270997;22;20571;-84
2022/10/06 01:40:43;;;;;;;3.50;0.80;;;;;;;;;;6270589;22;20517;-83
2022/10/06 01:43:10;;;;;;;3.37;0.73;;;;;;;;;;6270103;22;20173;-82
2022/10/06 01:45:38;;;;;;;9.70;0.93;;;;;;;;;;6270960;22;20181;-83
2022/10/06 01:48:05;;;;;;;3.00;0.70;;;;;;;;;;6270743;22;20197;-84
2022/10/06 01:50:33;;;;;;;3.23;0.60;;;;;;;;;;6269413;22;20184;-82
2022/10/06 01:53:00;;;;;;;2.97;0.60;;;;;;;;;;6272247;22;20177;-83
2022/10/06 01:55:28;;;;;;;3.33;1.00;;;;;;;;;;6268258;22;20327;-83
2022/10/06 01:57:57;;;;;;;2.60;0.87;;;;;;;;;;6245026;22;20255;-83
2022/10/06 02:00:24;;;;;;;3.50;0.70;;;;;;;;;;6271792;22;20209;-82
2022/10/06 02:02:51;;;;;;;5.50;0.80;;;;;;;;;;6270873;22;20188;-82
2022/10/06 02:05:19;;;;;;;5.03;0.90;;;;;;;;;;6269398;22;20170;-82
2022/10/06 02:07:46;;;;;;;1.57;0.80;;;;;;;;;;6270650;22;20203;-84
2022/10/06 02:10:14;;;;;;;4.00;0.80;;;;;;;;;;6271461;22;20208;-83
2022/10/06 02:12:41;;;;;;;3.03;0.90;;;;;;;;;;6271286;22;20182;-84
2022/10/06 02:15:11;;;;;;;4.67;1.20;;;;;;;;;;6269988;22;20257;-83
2022/10/06 02:17:39;;;;;;;2.13;0.80;;;;;;;;;;6271628;22;20203;-83
2022/10/06 02:20:07;;;;;;;2.47;0.70;;;;;;;;;;6270054;22;20173;-84
2022/10/06 02:22:38;;;;;;;1.83;0.70;;;;;;;;;;6271837;22;20177;-83
2022/10/06 02:25:05;;;;;;;4.03;0.80;;;;;;;;;;6243186;22;20173;-84
2022/10/06 02:27:33;;;;;;;4.30;1.40;;;;;;;;;;6269487;22;20198;-83
2022/10/06 02:30:00;;;;;;;7.03;1.30;;;;;;;;;;6267819;22;20180;-83
2022/10/06 02:32:34;;;;;;;6.07;2.00;;;;;;;;;;6269269;22;20182;-83
2022/10/06 02:35:02;;;;;;;6.70;1.73;;;;;;;;;;6269530;22;20640;-86
2022/10/06 02:37:29;;;;;;;7.33;2.20;;;;;;;;;;6268899;22;20576;-84
2022/10/06 02:39:57;;;;;;;4.90;1.87;;;;;;;;;;6270045;22;20184;-81
2022/10/06 02:42:24;;;;;;;7.80;1.93;;;;;;;;;;6269275;22;20181;-83
2022/10/06 02:44:52;;;;;;;7.50;1.93;;;;;;;;;;6269665;22;20184;-83
2022/10/06 02:47:21;;;;;;;9.43;2.23;;;;;;;;;;6242759;22;20592;-84
2022/10/06 02:49:50;;;;;;;7.47;2.00;;;;;;;;;;6270246;22;20182;-84
2022/10/06 02:52:18;;;;;;;3.73;1.70;;;;;;;;;;6242260;22;20238;-82
2022/10/06 02:54:45;;;;;;;12.33;2.50;;;;;;;;;;6267466;22;20231;-82
2022/10/06 02:57:15;;;;;;;5.67;1.97;;;;;;;;;;6242963;22;20221;-83
2022/10/06 02:59:43;;;;;;;4.23;1.90;;;;;;;;;;6242662;22;20698;-83
2022/10/06 03:02:10;;;;;;;7.00;1.90;;;;;;;;;;6267802;22;20555;-83
2022/10/06 03:04:38;;;;;;;5.00;1.70;;;;;;;;;;6269514;22;20180;-82
2022/10/06 03:07:07;;;;;;;10.27;2.20;;;;;;;;;;6271583;22;20204;-83
2022/10/06 03:09:34;;;;;;;8.20;2.10;;;;;;;;;;6242994;22;20177;-83
2022/10/06 03:12:01;;;;;;;6.97;2.20;;;;;;;;;;6270793;22;20174;-84
2022/10/06 03:14:28;;;;;;;8.30;1.87;;;;;;;;;;6271440;22;20176;-85
2022/10/06 03:16:56;;;;;;;5.97;2.07;;;;;;;;;;6271607;22;20205;-82
2022/10/06 03:19:23;;;;;;;6.03;2.13;;;;;;;;;;6242970;22;20232;-81
2022/10/06 03:21:51;;;;;;;8.37;2.00;;;;;;;;;;6270184;22;20170;-84
2022/10/06 03:24:19;;;;;;;9.10;2.10;;;;;;;;;;6270174;22;20473;-83
2022/10/06 03:26:48;;;;;;;7.00;2.13;;;;;;;;;;6243949;22;20243;-82
2022/10/06 03:29:15;;;;;;;6.83;2.57;;;;;;;;;;6270551;22;20254;-81
2022/10/06 03:31:42;;;;;;;5.67;2.10;;;;;;;;;;6271591;22;20181;-82
2022/10/06 03:34:12;;;;;;;8.57;2.50;;;;;;;;;;6270301;22;20243;-82
2022/10/06 03:36:40;;;;;;;12.03;2.60;;;;;;;;;;6271015;22;20660;-81
2022/10/06 03:39:07;;;;;;;9.93;2.67;;;;;;;;;;6270785;22;20199;-82
2022/10/06 03:41:37;;;;;;;10.60;2.70;;;;;;;;;;6270938;22;20173;-81
2022/10/06 03:44:04;;;;;;;8.87;2.60;;;;;;;;;;6269594;22;20169;-81
2022/10/06 03:46:32;;;;;;;7.03;2.60;;;;;;;;;;6270435;22;20185;-84
2022/10/06 03:49:00;;;;;;;9.20;2.57;;;;;;;;;;6270658;22;20643;-83
2022/10/06 03:51:28;;;;;;;10.73;2.53;;;;;;;;;;6244495;22;20212;-82
2022/10/06 03:53:56;;;;;;;8.60;2.83;;;;;;;;;;6243636;22;20249;-84
2022/10/06 03:56:24;;;;;;;8.90;2.90;;;;;;;;;;6270899;22;20224;-83
2022/10/06 03:58:54;;;;;;;11.70;2.10;;;;;;;;;;6269567;22;20185;-82
2022/10/06 04:01:22;;;;;;;9.47;1.87;;;;;;;;;;6270972;22;20178;-82
2022/10/06 04:03:49;;;;;;;6.80;2.20;;;;;;;;;;6268155;22;20176;-82
2022/10/06 04:06:18;;;;;;;9.50;2.23;;;;;;;;;;6270944;22;20181;-83
2022/10/06 04:08:45;;;;;;;11.77;2.63;;;;;;;;;;6244950;22;20181;-82
2022/10/06 04:11:14;;;;;;;7.43;2.57;;;;;;;;;;6271630;22;20180;-81
2022/10/06 04:13:42;;;;;;;6.80;2.00;;;;;;;;;;6244085;22;20177;-83
2022/10/06 04:16:15;;;;;;;11.80;2.03;;;;;;;;;;6269700;22;20719;-83
2022/10/06 04:18:43;;;;;;;6.10;1.97;;;;;;;;;;6271228;22;20198;-82
2022/10/06 04:21:11;;;;;;;11.27;2.27;;;;;;;;;;6244389;22;20284;-82
2022/10/06 04:23:38;;;;;;;7.67;2.10;;;;;;;;;;6245889;22;20181;-83
2022/10/06 04:26:08;;;;;;;11.33;2.10;;;;;;;;;;6272781;22;20165;-84
2022/10/06 04:28:36;;;;;;;10.83;2.53;;;;;;;;;;6271488;22;20683;-84
2022/10/06 04:31:05;;;;;;;9.10;2.10;;;;;;;;;;6272075;22;20595;-83
2022/10/06 04:33:34;;;;;;;11.93;2.23;;;;;;;;;;6271816;22;20176;-83
2022/10/06 04:36:02;;;;;;;14.17;2.23;;;;;;;;;;6271192;22;20224;-84
2022/10/06 04:38:29;;;;;;;8.33;2.30;;;;;;;;;;6272359;22;20257;-83
2022/10/06 04:40:57;;;;;;;11.57;2.80;;;;;;;;;;6271375;22;20174;-83
2022/10/06 04:43:26;;;;;;;6.60;2.43;;;;;;;;;;6269190;22;20181;-86
2022/10/06 04:45:57;;;;;;;8.87;2.70;;;;;;;;;;6244554;22;20180;-90
2022/10/06 04:48:26;;;;;;;6.53;2.97;;;;;;;;;;6271361;22;20204;-86
2022/10/06 04:50:59;;;;;;;14.97;2.73;;;;;;;;;;6271548;22;20173;-86
2022/10/06 04:53:26;;;;;;;11.83;3.07;;;;;;;;;;6271182;22;20636;-85
2022/10/06 04:56:01;;;;;;;11.87;2.60;;;;;;;;;;6270435;22;20194;-84
2022/10/06 04:58:28;;;;;;;12.70;2.90;;;;;;;;;;6243137;22;20197;-83
2022/10/06 05:00:55;;;;;;;10.20;2.90;;;;;;;;;;6271419;22;20232;-82
2022/10/06 05:03:23;;;;;;;16.57;3.00;;;;;;;;;;6244434;22;20181;-85
2022/10/06 05:05:50;;;;;;;15.47;2.87;;;;;;;;;;6269843;22;20166;-86
2022/10/06 05:08:19;;;;;;;12.90;2.63;;;;;;;;;;6270599;22;20216;-87
2022/10/06 05:10:47;;;;;;;8.03;2.47;;;;;;;;;;6245902;22;20498;-85
2022/10/06 05:13:14;;;;;;;11.70;2.70;;;;;;;;;;6275073;22;20767;-84
2022/10/06 05:15:42;;;;;;;12.30;2.80;;;;;;;;;;6274045;22;20621;-85
2022/10/06 05:18:09;;;;;;;14.90;3.20;;;;;;;;;;6275101;22;20243;-85
2022/10/06 05:20:37;;;;;;;8.80;2.63;;;;;;;;;;6275613;22;20170;-84
2022/10/06 05:23:07;;;;;;;11.03;2.70;;;;;;;;;;6275572;22;20184;-84
2022/10/06 05:25:35;;;;;;;11.73;2.50;;;;;;;;;;6275673;22;20178;-84
2022/10/06 05:28:03;;;;;;;11.83;2.37;;;;;;;;;;6275184;22;20224;-84
2022/10/06 05:30:30;;;;;;;12.73;2.53;;;;;;;;;;6274588;22;20176;-87
2022/10/06 05:32:57;;;;;;;10.03;2.30;;;;;;;;;;6274709;22;20169;-85
2022/10/06 05:35:25;;;;;;;10.10;1.93;;;;;;;;;;6274691;22;20181;-86
2022/10/06 05:37:54;;;;;;;10.63;2.03;;;;;;;;;;6271423;22;20550;-86
2022/10/06 05:40:23;;;;;;;9.40;2.30;;;;;;;;;;6273048;22;20174;-85
2022/10/06 05:42:55;;;;;;;11.53;1.73;;;;;;;;;;6242522;22;20177;-86
2022/10/06 05:45:23;;;;;;;11.40;1.97;;;;;;;;;;6244924;22;20177;-89
2022/10/06 05:47:50;;;;;;;9.00;1.80;;;;;;;;;;6244259;22;20288;-88
2022/10/06 05:50:19;;;;;;;13.70;1.90;;;;;;;;;;6271163;22;20878;-88
2022/10/06 05:52:46;;;;;;;16.67;2.27;;;;;;;;;;6245279;22;20566;-85
2022/10/06 05:55:14;;;;;;;15.97;2.53;;;;;;;;;;6269299;22;20518;-87
2022/10/06 05:57:42;;;;;;;12.17;2.27;;;;;;;;;;6269879;22;20216;-88
2022/10/06 06:00:12;;;;;;;17.47;2.27;;;;;;;;;;6272551;22;20174;-85
2022/10/06 06:02:39;;;;;;;14.60;2.03;;;;;;;;;;6244828;22;20173;-86
2022/10/06 06:05:07;;;;;;;10.80;1.83;;;;;;;;;;6267847;22;20177;-86
2022/10/06 06:07:35;;;;;;;8.83;1.57;;;;;;;;;;6240457;22;20197;-88
2022/10/06 06:10:02;;;;;;;11.67;2.23;;;;;;;;;;6244930;22;20184;-85
2022/10/06 06:12:30;;;;;;;9.03;2.00;;;;;;;;;;6272192;22;20632;-86
2022/10/06 06:17:44;;;;;;;18.67;2.00;;;;;;;;;;6272453;22;20717;-86
2022/10/06 06:20:11;;;;;;;7.73;1.60;;;;;;;;;;6273104;22;20173;-87
2022/10/06 06:22:39;;;;;;;19.10;2.10;;;;;;;;;;6271192;22;20173;-85
2022/10/06 06:25:06;;;;;;;9.87;1.80;;;;;;;;;;6271522;22;20180;-86
2022/10/06 06:27:34;;;;;;;15.60;1.80;;;;;;;;;;6271603;22;20189;-86
2022/10/06 06:30:01;;;;;;;14.90;2.00;;;;;;;;;;6271995;22;20189;-87
2022/10/06 06:32:29;;;;;;;12.67;1.93;;;;;;;;;;6272366;22;20178;-85
2022/10/06 06:34:58;;;;;;;12.83;2.00;;;;;;;;;;6272346;22;20180;-86
2022/10/06 06:37:25;;;;;;;13.63;1.97;;;;;;;;;;6245531;22;20198;-86
2022/10/06 06:39:53;;;;;;;14.33;2.03;;;;;;;;;;6272514;22;20181;-88
2022/10/06 06:42:20;;;;;;;9.40;1.70;;;;;;;;;;6273937;22;20252;-86
2022/10/06 06:44:47;;;;;;;10.83;1.70;;;;;;;;;;6244549;22;20547;-86
2022/10/06 06:47:16;;;;;;;18.47;2.77;;;;;;;;;;6273313;22;20532;-86
2022/10/06 06:49:43;;;;;;;15.90;1.70;;;;;;;;;;6246559;22;20178;-86
2022/10/06 06:52:13;;;;;;;16.50;2.07;;;;;;;;;;6247267;22;20671;-86
2022/10/06 06:54:40;;;;;;;12.47;2.00;;;;;;;;;;6245638;22;20253;-86
2022/10/06 06:57:08;;;;;;;11.00;2.87;;;;;;;;;;6272367;22;20205;-87
2022/10/06 06:59:37;;;;;;;14.70;2.50;;;;;;;;;;6273239;22;20256;-86
2022/10/06 07:02:04;;;;;;;10.10;1.80;;;;;;;;;;6272133;22;20180;-86
2022/10/06 07:04:34;;;;;;;9.77;1.87;;;;;;;;;;6273070;22;20177;-86
2022/10/06 07:07:02;;;;;;;10.17;1.87;;;;;;;;;;6273404;22;20196;-85
2022/10/06 07:09:31;;;;;;;23.03;2.40;;;;;;;;;;6272500;22;20177;-86
2022/10/06 07:11:58;;;;;;;13.43;1.97;;;;;;;;;;6245380;22;20205;-85
2022/10/06 07:14:26;;;;;;;12.07;2.20;;;;;;;;;;6242216;22;20256;-86
2022/10/06 07:25:13;;;;;;;11.80;2.13;;;;;;;;;;6270701;22;20154;-87
2022/10/06 07:27:42;;;;;;;11.10;3.20;;;;;;;;;;6272585;22;20251;-89
2022/10/06 07:30:09;;;;;;;10.17;2.17;;;;;;;;;;6245473;22;20676;-84
2022/10/06 07:32:37;;;;;;;11.17;1.80;;;;;;;;;;6244120;22;20204;-87
2022/10/06 07:35:06;;;;;;;18.37;3.10;;;;;;;;;;6245564;22;20506;-88
2022/10/06 07:37:35;;;;;;;13.07;2.00;;;;;;;;;;6271216;22;20258;-89
2022/10/06 07:40:03;;;;;;;12.90;1.90;;;;;;;;;;6272622;22;20177;-89
2022/10/06 07:42:47;;;;;;;11.83;1.97;;;;;;;;;;6276793;22;20177;-90
2022/10/06 07:48:00;;;;;;;11.77;2.40;;;;;;;;;;6274244;22;20216;-89
2022/10/06 07:50:27;;;;;;;15.37;2.17;;;;;;;;;;6247852;22;20180;-84
2022/10/06 07:52:55;;;;;;;15.70;1.80;;;;;;;;;;6272534;22;20231;-86
2022/10/06 07:55:22;;;;;;;19.20;2.20;;;;;;;;;;6273866;22;20186;-85
2022/10/06 07:57:51;;;;;;;15.83;2.33;;;;;;;;;;6273783;22;20209;-84
2022/10/06 08:00:21;;;;;;;12.83;1.80;;;;;;;;;;6273330;22;20174;-84
2022/10/06 08:02:48;;;;;;;14.13;1.80;;;;;;;;;;6246990;22;20181;-85
2022/10/06 08:05:16;;;;;;;8.27;1.70;;;;;;;;;;6273791;22;20174;-84
2022/10/06 08:07:43;;;;;;;16.97;2.27;;;;;;;;;;6271576;22;20498;-85
2022/10/06 09:38:46;;;;;;;13.67;2.43;;;;;;;;;;6302237;22;20195;-83
2022/10/06 09:41:14;;;;;;;15.40;2.30;;;;;;;;;;6301710;22;20165;-83
2022/10/06 09:46:23;;;;;;;12.53;1.97;;;;;;;;;;6253488;22;20951;-83
2022/10/06 09:49:06;;;;;;;14.10;1.87;;;;;;;;;;6215421;23;20159;-83
2022/10/06 09:51:36;;;;;;;15.20;2.17;;;;;;;;;;6218537;23;20166;-83
2022/10/06 09:54:14;;;;;;;13.00;2.00;;;;;;;;;;6241402;23;20174;-83
2022/10/06 09:56:42;;;;;;;20.07;2.10;;;;;;;;;;6240415;23;20201;-84
2022/10/06 09:59:19;;;;;;;9.90;1.63;;;;;;;;;;6240865;23;20289;-83
2022/10/06 10:01:51;;;;;;;11.83;1.60;;;;;;;;;;6240311;23;20636;-83
2022/10/06 10:04:22;;;;;;;12.33;2.30;;;;;;;;;;6214306;23;20252;-83
2022/10/06 10:06:50;;;;;;;13.93;1.90;;;;;;;;;;6240917;23;20198;-81
2022/10/06 10:09:29;;;;;;;12.53;1.60;;;;;;;;;;6240198;23;20189;-82
2022/10/06 10:12:26;;;;;;;8.73;1.63;;;;;;;;;;6240283;23;20178;-82
2022/10/06 10:14:55;;;;;;;9.23;1.43;;;;;;;;;;6241011;23;20174;-82
2022/10/06 10:17:23;;;;;;;9.80;1.83;;;;;;;;;;6244342;23;20206;-84
2022/10/06 10:19:53;;;;;;;6.10;1.30;;;;;;;;;;6217305;23;20189;-84
2022/10/06 10:22:22;;;;;;;16.03;2.13;;;;;;;;;;6240276;23;20174;-84
2022/10/06 10:24:57;;;;;;;10.53;1.70;;;;;;;;;;6241380;23;20178;-83
2022/10/06 10:27:30;;;;;;;10.90;1.80;;;;;;;;;;6241626;23;20221;-83
2022/10/06 10:30:03;;;;;;;7.27;1.30;;;;;;;;;;6243389;23;20238;-83
2022/10/06 10:32:40;;;;;;;6.60;1.20;;;;;;;;;;6240913;23;20625;-83
2022/10/06 10:35:15;;;;;;;19.50;1.80;;;;;;;;;;6243689;23;20177;-83
2022/10/06 10:37:46;;;;;;;11.93;1.60;;;;;;;;;;6215809;23;20201;-83
2022/10/06 10:40:28;;;;;;;9.87;1.80;;;;;;;;;;6242931;23;20245;-84
2022/10/06 10:43:00;;;;;;;5.93;1.43;;;;;;;;;;6242148;23;20221;-83
2022/10/06 10:45:31;;;;;;;9.13;1.20;;;;;;;;;;6242800;22;20216;-86
2022/10/06 10:48:00;;;;;;;10.30;1.47;;;;;;;;;;6242705;23;20357;-83
2022/10/06 10:50:30;;;;;;;8.27;1.47;;;;;;;;;;6191402;23;20182;-84
2022/10/06 10:53:01;;;;;;;11.37;1.60;;;;;;;;;;6241971;23;20373;-83
2022/10/06 10:55:30;;;;;;;10.23;1.60;;;;;;;;;;6216405;23;20186;-84
2022/10/06 10:58:00;;;;;;;8.47;1.07;;;;;;;;;;6241210;23;20209;-83
2022/10/06 11:00:34;;;;;;;8.67;1.30;;;;;;;;;;6215813;23;20178;-83
2022/10/06 11:03:02;;;;;;;13.27;1.60;;;;;;;;;;6242305;23;20178;-84
2022/10/06 11:05:33;;;;;;;11.10;1.40;;;;;;;;;;6241950;23;20191;-82
2022/10/06 11:08:08;;;;;;;13.03;1.57;;;;;;;;;;6242141;23;20191;-83
2022/10/06 11:10:37;;;;;;;6.43;1.10;;;;;;;;;;6243417;23;20648;-83
2022/10/06 11:13:11;;;;;;;8.07;1.30;;;;;;;;;;6242840;23;20174;-83
2022/10/06 11:15:47;;;;;;;7.87;1.40;;;;;;;;;;6241845;23;20171;-84
2022/10/06 11:18:23;;;;;;;6.13;1.10;;;;;;;;;;6242434;23;20539;-83
2022/10/06 11:20:52;;;;;;;16.57;1.67;;;;;;;;;;6241959;23;20208;-84
2022/10/06 11:23:25;;;;;;;8.77;1.23;;;;;;;;;;6242757;23;20261;-86
2022/10/06 11:26:00;;;;;;;6.17;1.10;;;;;;;;;;6242157;23;20163;-83
2022/10/06 11:28:32;;;;;;;9.07;1.30;;;;;;;;;;6243182;23;20189;-87
2022/10/06 11:31:02;;;;;;;10.10;1.40;;;;;;;;;;6242276;23;20277;-84
2022/10/06 11:33:32;;;;;;;11.33;1.30;;;;;;;;;;6241973;23;20174;-83
2022/10/06 11:36:00;;;;;;;12.13;1.37;;;;;;;;;;6212571;23;20182;-83
2022/10/06 11:38:29;;;;;;;11.80;1.47;;;;;;;;;;6240098;23;20198;-83
2022/10/06 11:41:06;;;;;;;14.13;1.97;;;;;;;;;;6241585;23;20178;-83
2022/10/06 11:43:38;;;;;;;11.73;1.50;;;;;;;;;;6241614;23;20252;-84
2022/10/06 11:46:09;;;;;;;8.87;1.40;;;;;;;;;;6243470;22;20633;-83
2022/10/06 11:48:36;;;;;;;10.63;1.43;;;;;;;;;;6242544;23;20305;-84
2022/10/06 11:51:27;;;;;;;6.47;1.33;;;;;;;;;;6242959;23;20182;-84
2022/10/06 11:53:55;;;;;;;10.00;1.30;;;;;;;;;;6193606;23;20178;-83
2022/10/06 11:56:23;;;;;;;4.73;1.13;;;;;;;;;;6242009;23;20894;-84
2022/10/06 11:59:11;;;;;;;15.90;1.40;;;;;;;;;;6242405;23;20517;-82
2022/10/06 12:01:52;;;;;;;8.80;1.10;;;;;;;;;;6215055;23;20641;-84
2022/10/06 12:04:20;;;;;;;7.43;1.47;;;;;;;;;;6242402;23;20582;-83
2022/10/06 12:06:54;;;;;;;6.83;1.13;;;;;;;;;;6242326;23;20197;-84
2022/10/06 12:09:39;;;;;;;8.50;1.30;;;;;;;;;;6242831;23;20519;-83
2022/10/06 12:12:25;;;;;;;6.13;1.00;;;;;;;;;;6215821;23;20182;-83
2022/10/06 12:14:58;;;;;;;6.63;1.20;;;;;;;;;;6215652;23;20186;-83
2022/10/06 12:17:28;;;;;;;8.93;1.47;;;;;;;;;;6241579;23;20198;-83
2022/10/06 12:20:00;;;;;;;7.07;1.20;;;;;;;;;;6243048;23;20182;-84
2022/10/06 12:22:30;;;;;;;8.00;1.00;;;;;;;;;;6189864;23;20182;-85
2022/10/06 12:25:01;;;;;;;15.20;1.87;;;;;;;;;;6214963;23;20209;-85
2022/10/06 12:27:33;;;;;;;8.23;1.20;;;;;;;;;;6242366;23;20202;-83
2022/10/06 12:30:07;;;;;;;10.23;1.37;;;;;;;;;;6241649;23;20162;-83
2022/10/06 12:32:52;;;;;;;7.37;1.83;;;;;;;;;;6241526;23;20534;-83
2022/10/06 12:35:32;;;;;;;6.43;1.07;;;;;;;;;;6242296;23;20159;-84
2022/10/06 12:38:03;;;;;;;6.70;1.13;;;;;;;;;;6214924;23;20294;-83
2022/10/06 12:40:50;;;;;;;8.53;1.27;;;;;;;;;;6241595;23;20632;-84
2022/10/06 12:43:26;;;;;;;8.50;1.20;;;;;;;;;;6241579;23;20512;-84
2022/10/06 12:45:57;;;;;;;6.77;1.33;;;;;;;;;;6242191;22;20264;-84
2022/10/06 12:48:26;;;;;;;6.97;1.33;;;;;;;;;;6242180;23;20198;-83
2022/10/06 12:50:56;;;;;;;9.13;1.10;;;;;;;;;;6242155;23;20178;-83
2022/10/06 12:53:26;;;;;;;7.30;1.33;;;;;;;;;;6241191;23;20178;-85
2022/10/06 12:55:55;;;;;;;7.57;1.10;;;;;;;;;;6215687;23;20185;-83
2022/10/06 12:58:28;;;;;;;10.77;1.40;;;;;;;;;;6240218;23;20594;-84
2022/10/06 13:01:02;;;;;;;6.13;1.00;;;;;;;;;;6241032;23;20166;-83
2022/10/06 13:03:29;;;;;;;8.23;1.43;;;;;;;;;;6241470;23;20174;-84
2022/10/06 13:05:58;;;;;;;7.90;0.90;;;;;;;;;;6240963;23;20174;-83
2022/10/06 13:08:26;;;;;;;4.43;1.00;;;;;;;;;;6240996;23;20195;-83
2022/10/06 13:11:10;;;;;;;5.00;0.70;;;;;;;;;;6214261;23;20588;-84
2022/10/06 13:13:40;;;;;;;6.07;1.40;;;;;;;;;;6239975;23;20178;-83
2022/10/06 13:16:10;;;;;;;9.07;1.23;;;;;;;;;;6239863;23;20740;-84
2022/10/06 13:18:38;;;;;;;7.83;0.90;;;;;;;;;;6239885;23;20514;-82
2022/10/06 13:21:10;;;;;;;12.80;1.37;;;;;;;;;;6213969;23;20404;-83
2022/10/06 13:23:39;;;;;;;4.50;0.90;;;;;;;;;;6187957;23;20184;-83
2022/10/06 13:26:07;;;;;;;10.00;1.40;;;;;;;;;;6240542;23;20257;-84
2022/10/06 13:28:46;;;;;;;9.03;1.03;;;;;;;;;;6213879;23;20696;-85
2022/10/06 13:31:19;;;;;;;5.50;0.70;;;;;;;;;;6239582;23;20329;-84
2022/10/06 13:33:47;;;;;;;7.63;0.97;;;;;;;;;;6214852;23;20515;-84
2022/10/06 13:36:15;;;;;;;7.83;0.90;;;;;;;;;;6241331;23;20611;-81
2022/10/06 13:38:43;;;;;;;6.67;1.20;;;;;;;;;;6240321;23;20570;-86
2022/10/06 13:41:18;;;;;;;4.67;0.80;;;;;;;;;;6243621;23;20265;-83
2022/10/06 13:43:47;;;;;;;6.10;0.90;;;;;;;;;;6242431;23;20197;-85
2022/10/06 13:46:17;;;;;;;7.13;1.60;;;;;;;;;;6240666;22;20255;-82
2022/10/06 13:48:48;;;;;;;6.67;1.00;;;;;;;;;;6237803;23;20197;-82
2022/10/06 13:51:17;;;;;;;5.20;1.00;;;;;;;;;;6237904;23;20212;-81
2022/10/06 13:53:46;;;;;;;6.87;1.17;;;;;;;;;;6239790;23;20236;-81
2022/10/06 13:56:25;;;;;;;6.80;1.30;;;;;;;;;;6241454;23;20182;-81
2022/10/06 13:58:52;;;;;;;8.77;2.03;;;;;;;;;;6239067;23;20265;-81
2022/10/06 14:01:28;;;;;;;10.23;1.50;;;;;;;;;;6240483;23;20490;-80
2022/10/06 14:04:11;;;;;;;6.67;1.10;;;;;;;;;;6241144;23;20172;-82
2022/10/06 14:06:45;;;;;;;7.87;1.40;;;;;;;;;;6242241;23;20501;-81
2022/10/06 14:09:13;;;;;;;5.93;0.87;;;;;;;;;;6212042;23;20571;-82
2022/10/06 14:11:40;;;;;;;4.83;0.80;;;;;;;;;;6240883;23;20182;-81
2022/10/06 14:14:13;;;;;;;5.60;0.93;;;;;;;;;;6236965;23;20301;-91
2022/10/06 14:16:41;;;;;;;4.73;0.93;;;;;;;;;;6242040;23;20232;-89
2022/10/06 14:19:28;;;;;;;9.93;1.07;;;;;;;;;;6240760;23;20546;-89
2022/10/06 14:21:57;;;;;;;5.60;1.07;;;;;;;;;;6242787;23;20763;-91
2022/10/06 14:24:27;;;;;;;5.67;0.83;;;;;;;;;;6244663;23;20206;-88
2022/10/06 14:26:55;;;;;;;5.00;1.13;;;;;;;;;;6245719;23;20758;-91
2022/10/06 14:29:24;;;;;;;3.93;0.80;;;;;;;;;;6242791;23;20522;-90
2022/10/06 14:31:51;;;;;;;4.83;0.80;;;;;;;;;;6243684;23;20178;-88
2022/10/06 14:34:19;;;;;;;9.50;0.90;;;;;;;;;;6215587;23;20205;-89
2022/10/06 14:36:50;;;;;;;8.57;1.00;;;;;;;;;;6215669;23;20560;-90
2022/10/06 14:39:19;;;;;;;4.63;1.00;;;;;;;;;;6217275;23;20198;-90
2022/10/06 14:41:46;;;;;;;8.27;1.10;;;;;;;;;;6245128;23;20228;-90
2022/10/06 14:44:15;;;;;;;6.00;1.00;;;;;;;;;;6244562;23;20186;-91
2022/10/06 14:46:43;;;;;;;5.47;0.93;;;;;;;;;;6250024;22;20202;-93
2022/10/06 14:49:12;;;;;;;5.23;0.97;;;;;;;;;;6258079;23;20210;-92
2022/10/06 14:51:40;;;;;;;2.73;0.80;;;;;;;;;;6255619;23;20178;-90
2022/10/06 14:54:10;;;;;;;5.37;0.80;;;;;;;;;;6255633;23;20201;-92
2022/10/06 14:56:39;;;;;;;9.30;0.80;;;;;;;;;;6246436;23;20237;-90
2022/10/06 14:59:07;;;;;;;3.50;0.93;;;;;;;;;;6256979;23;20201;-91
2022/10/06 15:01:36;;;;;;;9.63;1.10;;;;;;;;;;6252626;23;20240;-91
2022/10/06 15:04:04;;;;;;;4.23;0.50;;;;;;;;;;6251121;23;20244;-90
2022/10/06 15:09:17;;;;;;;8.13;0.97;;;;;;;;;;6243356;23;20169;-92
2022/10/06 15:11:46;;;;;;;6.07;1.10;;;;;;;;;;6216240;23;20175;-90
2022/10/06 15:14:13;;;;;;;6.37;0.87;;;;;;;;;;6240762;23;20516;-91
2022/10/06 15:16:42;;;;;;;4.73;1.10;;;;;;;;;;6245777;23;20178;-90
2022/10/06 15:19:10;;;;;;;5.33;1.00;;;;;;;;;;6240953;23;20545;-90
2022/10/06 15:21:37;;;;;;;5.80;1.10;;;;;;;;;;6239685;23;20201;-91
2022/10/06 15:24:05;;;;;;;6.27;0.90;;;;;;;;;;6239614;23;20232;-88
2022/10/06 15:29:27;;;;;;;4.10;1.20;;;;;;;;;;6185746;23;20170;-89
2022/10/06 15:31:57;;;;;;;7.97;1.17;;;;;;;;;;6239650;23;20708;-89
2022/10/06 15:34:25;;;;;;;7.40;1.43;;;;;;;;;;6241072;23;20637;-89
2022/10/06 15:36:53;;;;;;;10.03;2.17;;;;;;;;;;6214380;23;20198;-86
2022/10/06 15:39:22;;;;;;;6.30;2.10;;;;;;;;;;6240677;23;20191;-87
2022/10/06 15:41:50;;;;;;;12.67;2.67;;;;;;;;;;6242076;23;20178;-89
2022/10/06 15:44:21;;;;;;;18.23;3.60;;;;;;;;;;6243890;23;20240;-90
2022/10/06 15:47:04;;;;;;;26.50;3.47;;;;;;;;;;6241761;22;20249;-89
2022/10/06 15:49:36;;;;;;;13.33;2.40;;;;;;;;;;6243930;23;20155;-88
2022/10/06 15:52:04;;;;;;;13.53;1.80;;;;;;;;;;6216641;23;20179;-89
2022/10/06 15:54:32;;;;;;;9.30;2.33;;;;;;;;;;6245230;23;20261;-89
2022/10/06 15:57:01;;;;;;;7.80;1.27;;;;;;;;;;6246104;23;20205;-89
2022/10/06 15:59:33;;;;;;;13.93;3.17;;;;;;;;;;6245170;23;20240;-90
2022/10/06 16:02:03;;;;;;;18.33;4.33;;;;;;;;;;6244219;23;20174;-90
2022/10/06 16:04:34;;;;;;;19.70;4.30;;;;;;;;;;6246241;23;20240;-91
2022/10/06 16:07:02;;;;;;;24.43;5.53;;;;;;;;;;6218326;23;20202;-90
2022/10/06 16:09:30;;;;;;;21.97;5.40;;;;;;;;;;6245258;23;20175;-91
2022/10/06 16:11:58;;;;;;;17.53;4.43;;;;;;;;;;6241441;23;20205;-90
2022/10/06 16:14:27;;;;;;;16.60;3.70;;;;;;;;;;6241352;23;20183;-91
2022/10/06 16:16:56;;;;;;;12.73;3.53;;;;;;;;;;6241130;23;20202;-90
2022/10/06 16:19:25;;;;;;;11.47;3.13;;;;;;;;;;6242010;23;20225;-90
2022/10/06 16:21:52;;;;;;;14.33;2.40;;;;;;;;;;6243244;23;20200;-91
2022/10/06 16:24:20;;;;;;;10.60;2.10;;;;;;;;;;6241101;23;20175;-89
2022/10/06 16:26:48;;;;;;;7.93;1.97;;;;;;;;;;6243219;23;20190;-91
2022/10/06 16:29:16;;;;;;;6.93;1.97;;;;;;;;;;6244246;23;20181;-91
2022/10/06 16:31:46;;;;;;;9.70;2.10;;;;;;;;;;6243019;23;20183;-91
2022/10/06 16:34:13;;;;;;;10.10;2.53;;;;;;;;;;6244701;23;20208;-91
2022/10/06 16:36:42;;;;;;;12.83;4.23;;;;;;;;;;6244658;23;20194;-90
2022/10/06 16:39:12;;;;;;;13.07;3.83;;;;;;;;;;6244275;23;20190;-90
2022/10/06 16:41:40;;;;;;;13.57;3.40;;;;;;;;;;6243960;23;20174;-89
2022/10/06 16:44:07;;;;;;;15.13;5.00;;;;;;;;;;6245413;23;20176;-89